Terminal Aerodrome Forecast
Issued by NWS

Home | Current Version | Previous Version | Text Only | Print | Product List | Glossary On
Versions: 1 2 3 4 5 6 7 8 9 10 11 12 13 14 15
000
FTUS42 TJSJ 221734
TAFJBQ
TAF
TJBQ 221734Z 2218/2318 08018G26KT P6SM SCT030 SCT060
     FM222300 09012KT P6SM FEW030 SCT120
     FM230300 11006KT P6SM FEW050
     FM231450 07014KT P6SM SCT030 SCT060
      AMD NOT SKED 2302/2311=

USA.gov is the U.S. government's official web portal to all federal, state and local government web resources and services.